sensor_id;sensor_type;location;lat;lon;timestamp;temperature;humidity
13346;DHT22;6742;48.036;15.780;2023-04-03T00:00:59;5.00;99.90
13346;DHT22;6742;48.036;15.780;2023-04-03T00:03:26;4.90;99.90
13346;DHT22;6742;48.036;15.780;2023-04-03T00:05:55;4.90;99.90
13346;DHT22;6742;48.036;15.780;2023-04-03T00:08:22;5.00;99.90
13346;DHT22;6742;48.036;15.780;2023-04-03T00:10:49;4.90;99.90
13346;DHT22;6742;48.036;15.780;2023-04-03T00:13:16;5.10;99.90
13346;DHT22;6742;48.036;15.780;2023-04-03T00:15:43;5.00;99.90
13346;DHT22;6742;48.036;15.780;2023-04-03T00:18:10;5.00;99.90
13346;DHT22;6742;48.036;15.780;2023-04-03T00:20:37;5.00;99.90
13346;DHT22;6742;48.036;15.780;2023-04-03T00:23:05;4.90;99.90
13346;DHT22;6742;48.036;15.780;2023-04-03T00:25:32;4.90;99.90
13346;DHT22;6742;48.036;15.780;2023-04-03T00:27:59;4.90;99.90
13346;DHT22;6742;48.036;15.780;2023-04-03T00:30:26;4.80;99.90
13346;DHT22;6742;48.036;15.780;2023-04-03T00:32:53;4.80;99.90
13346;DHT22;6742;48.036;15.780;2023-04-03T00:35:21;4.80;99.90
13346;DHT22;6742;48.036;15.780;2023-04-03T00:37:51;4.80;99.90
13346;DHT22;6742;48.036;15.780;2023-04-03T00:40:21;5.00;99.90
13346;DHT22;6742;48.036;15.780;2023-04-03T00:42:52;4.90;99.90
13346;DHT22;6742;48.036;15.780;2023-04-03T00:45:31;5.00;99.90
13346;DHT22;6742;48.036;15.780;2023-04-03T00:48:00;5.00;99.90
13346;DHT22;6742;48.036;15.780;2023-04-03T00:50:31;5.00;99.90
13346;DHT22;6742;48.036;15.780;2023-04-03T00:52:59;5.00;99.90
13346;DHT22;6742;48.036;15.780;2023-04-03T00:55:27;4.90;99.90
13346;DHT22;6742;48.036;15.780;2023-04-03T00:57:56;4.90;99.90
13346;DHT22;6742;48.036;15.780;2023-04-03T01:00:24;5.00;99.90
13346;DHT22;6742;48.036;15.780;2023-04-03T01:02:52;4.80;99.90
13346;DHT22;6742;48.036;15.780;2023-04-03T01:05:20;4.80;99.90
13346;DHT22;6742;48.036;15.780;2023-04-03T01:07:48;4.80;99.90
13346;DHT22;6742;48.036;15.780;2023-04-03T01:10:17;4.80;99.90
13346;DHT22;6742;48.036;15.780;2023-04-03T01:12:48;4.80;99.90
13346;DHT22;6742;48.036;15.780;2023-04-03T01:15:17;4.90;99.90
13346;DHT22;6742;48.036;15.780;2023-04-03T01:17:46;4.80;99.90
13346;DHT22;6742;48.036;15.780;2023-04-03T01:23:29;4.70;99.90
13346;DHT22;6742;48.036;15.780;2023-04-03T01:25:59;4.80;99.90
13346;DHT22;6742;48.036;15.780;2023-04-03T01:28:30;5.00;99.90
13346;DHT22;6742;48.036;15.780;2023-04-03T01:31:02;4.80;99.90
13346;DHT22;6742;48.036;15.780;2023-04-03T01:33:34;4.80;99.90
13346;DHT22;6742;48.036;15.780;2023-04-03T01:36:01;4.80;99.90
13346;DHT22;6742;48.036;15.780;2023-04-03T01:38:28;4.70;99.90
13346;DHT22;6742;48.036;15.780;2023-04-03T01:40:55;4.80;99.90
13346;DHT22;6742;48.036;15.780;2023-04-03T01:43:22;4.80;99.90
13346;DHT22;6742;48.036;15.780;2023-04-03T01:45:49;4.90;99.90
13346;DHT22;6742;48.036;15.780;2023-04-03T01:48:18;4.90;99.90
13346;DHT22;6742;48.036;15.780;2023-04-03T01:50:46;4.80;99.90
13346;DHT22;6742;48.036;15.780;2023-04-03T01:53:13;4.90;99.90
13346;DHT22;6742;48.036;15.780;2023-04-03T01:55:43;4.90;99.90
13346;DHT22;6742;48.036;15.780;2023-04-03T01:58:10;4.80;99.90
13346;DHT22;6742;48.036;15.780;2023-04-03T02:00:37;4.90;99.90
13346;DHT22;6742;48.036;15.780;2023-04-03T02:03:04;4.80;99.90
13346;DHT22;6742;48.036;15.780;2023-04-03T02:05:32;4.70;99.90
13346;DHT22;6742;48.036;15.780;2023-04-03T02:08:00;4.90;99.90
13346;DHT22;6742;48.036;15.780;2023-04-03T02:10:27;4.90;99.90
13346;DHT22;6742;48.036;15.780;2023-04-03T02:12:54;4.90;99.90
13346;DHT22;6742;48.036;15.780;2023-04-03T02:15:23;4.90;99.90
13346;DHT22;6742;48.036;15.780;2023-04-03T02:17:51;5.00;99.90
13346;DHT22;6742;48.036;15.780;2023-04-03T02:20:18;4.90;99.90
13346;DHT22;6742;48.036;15.780;2023-04-03T02:22:45;5.00;99.90
13346;DHT22;6742;48.036;15.780;2023-04-03T02:25:13;4.90;99.90
13346;DHT22;6742;48.036;15.780;2023-04-03T02:27:40;4.90;99.90
13346;DHT22;6742;48.036;15.780;2023-04-03T02:30:08;4.90;99.90
13346;DHT22;6742;48.036;15.780;2023-04-03T02:32:36;4.90;99.90
13346;DHT22;6742;48.036;15.780;2023-04-03T02:35:03;4.90;99.90
13346;DHT22;6742;48.036;15.780;2023-04-03T02:37:30;4.90;99.90
13346;DHT22;6742;48.036;15.780;2023-04-03T02:39:57;4.90;99.90
13346;DHT22;6742;48.036;15.780;2023-04-03T02:42:26;4.80;99.90
13346;DHT22;6742;48.036;15.780;2023-04-03T02:44:53;4.90;99.90
13346;DHT22;6742;48.036;15.780;2023-04-03T02:47:20;4.90;99.90
13346;DHT22;6742;48.036;15.780;2023-04-03T02:49:47;5.00;99.90
13346;DHT22;6742;48.036;15.780;2023-04-03T02:52:14;5.00;99.90
13346;DHT22;6742;48.036;15.780;2023-04-03T02:54:41;5.00;99.90
13346;DHT22;6742;48.036;15.780;2023-04-03T02:57:08;5.00;99.90
13346;DHT22;6742;48.036;15.780;2023-04-03T02:59:37;5.00;99.90
13346;DHT22;6742;48.036;15.780;2023-04-03T03:02:06;5.10;99.90
13346;DHT22;6742;48.036;15.780;2023-04-03T03:04:33;5.10;99.90
13346;DHT22;6742;48.036;15.780;2023-04-03T03:07:00;5.10;99.90
13346;DHT22;6742;48.036;15.780;2023-04-03T03:09:26;5.10;99.90
13346;DHT22;6742;48.036;15.780;2023-04-03T03:11:55;5.00;99.90
13346;DHT22;6742;48.036;15.780;2023-04-03T03:14:22;5.00;99.90
13346;DHT22;6742;48.036;15.780;2023-04-03T03:16:50;5.00;99.90
13346;DHT22;6742;48.036;15.780;2023-04-03T03:19:17;5.10;99.90
13346;DHT22;6742;48.036;15.780;2023-04-03T03:21:44;5.10;99.90
13346;DHT22;6742;48.036;15.780;2023-04-03T03:24:11;5.00;99.90
13346;DHT22;6742;48.036;15.780;2023-04-03T03:26:38;5.00;99.90
13346;DHT22;6742;48.036;15.780;2023-04-03T03:29:05;5.10;99.90
13346;DHT22;6742;48.036;15.780;2023-04-03T03:31:32;5.10;99.90
13346;DHT22;6742;48.036;15.780;2023-04-03T03:34:03;4.90;99.90
13346;DHT22;6742;48.036;15.780;2023-04-03T03:36:29;5.00;99.90
13346;DHT22;6742;48.036;15.780;2023-04-03T03:38:57;5.10;99.90
13346;DHT22;6742;48.036;15.780;2023-04-03T03:41:24;5.00;99.90
13346;DHT22;6742;48.036;15.780;2023-04-03T03:43:51;5.00;99.90
13346;DHT22;6742;48.036;15.780;2023-04-03T03:46:19;5.00;99.90
13346;DHT22;6742;48.036;15.780;2023-04-03T03:48:46;5.20;99.90
13346;DHT22;6742;48.036;15.780;2023-04-03T03:51:14;4.90;99.90
13346;DHT22;6742;48.036;15.780;2023-04-03T03:53:42;5.00;99.90
13346;DHT22;6742;48.036;15.780;2023-04-03T03:56:09;5.00;99.90
13346;DHT22;6742;48.036;15.780;2023-04-03T03:58:36;4.90;99.90
13346;DHT22;6742;48.036;15.780;2023-04-03T04:01:03;4.90;99.90
13346;DHT22;6742;48.036;15.780;2023-04-03T04:03:31;4.90;99.90
13346;DHT22;6742;48.036;15.780;2023-04-03T04:05:58;4.80;99.90
13346;DHT22;6742;48.036;15.780;2023-04-03T04:08:27;4.80;99.90
13346;DHT22;6742;48.036;15.780;2023-04-03T04:10:54;4.90;99.90
13346;DHT22;6742;48.036;15.780;2023-04-03T04:13:21;4.80;99.90
13346;DHT22;6742;48.036;15.780;2023-04-03T04:15:48;4.80;99.90
13346;DHT22;6742;48.036;15.780;2023-04-03T04:18:15;4.80;99.90
13346;DHT22;6742;48.036;15.780;2023-04-03T04:20:45;4.80;99.90
13346;DHT22;6742;48.036;15.780;2023-04-03T04:23:12;4.80;99.90
13346;DHT22;6742;48.036;15.780;2023-04-03T04:25:40;4.80;99.90
13346;DHT22;6742;48.036;15.780;2023-04-03T04:28:07;4.90;99.90
13346;DHT22;6742;48.036;15.780;2023-04-03T04:30:34;4.90;99.90
13346;DHT22;6742;48.036;15.780;2023-04-03T04:33:03;4.80;99.90
13346;DHT22;6742;48.036;15.780;2023-04-03T04:35:31;4.70;99.90
13346;DHT22;6742;48.036;15.780;2023-04-03T04:37:58;4.80;99.90
13346;DHT22;6742;48.036;15.780;2023-04-03T04:40:25;4.80;99.90
13346;DHT22;6742;48.036;15.780;2023-04-03T04:42:53;4.80;99.90
13346;DHT22;6742;48.036;15.780;2023-04-03T04:45:21;4.70;99.90
13346;DHT22;6742;48.036;15.780;2023-04-03T04:47:47;4.80;99.90
13346;DHT22;6742;48.036;15.780;2023-04-03T04:50:17;4.80;99.90
13346;DHT22;6742;48.036;15.780;2023-04-03T04:52:44;4.70;99.90
13346;DHT22;6742;48.036;15.780;2023-04-03T04:55:11;4.70;99.90
13346;DHT22;6742;48.036;15.780;2023-04-03T04:57:37;4.70;99.90
13346;DHT22;6742;48.036;15.780;2023-04-03T05:00:07;4.60;99.90
13346;DHT22;6742;48.036;15.780;2023-04-03T05:02:35;4.60;99.90
13346;DHT22;6742;48.036;15.780;2023-04-03T05:05:02;4.60;99.90
13346;DHT22;6742;48.036;15.780;2023-04-03T05:07:29;4.70;99.90
13346;DHT22;6742;48.036;15.780;2023-04-03T05:09:56;4.70;99.90
13346;DHT22;6742;48.036;15.780;2023-04-03T05:12:23;4.80;99.90
13346;DHT22;6742;48.036;15.780;2023-04-03T05:14:50;4.70;99.90
13346;DHT22;6742;48.036;15.780;2023-04-03T05:17:19;4.70;99.90
13346;DHT22;6742;48.036;15.780;2023-04-03T05:19:46;4.70;99.90
13346;DHT22;6742;48.036;15.780;2023-04-03T05:22:13;4.80;99.90
13346;DHT22;6742;48.036;15.780;2023-04-03T05:24:40;4.80;99.90
13346;DHT22;6742;48.036;15.780;2023-04-03T05:27:07;4.90;99.90
13346;DHT22;6742;48.036;15.780;2023-04-03T05:29:34;4.80;99.90
13346;DHT22;6742;48.036;15.780;2023-04-03T05:32:04;4.70;99.90
13346;DHT22;6742;48.036;15.780;2023-04-03T05:34:32;4.80;99.90
13346;DHT22;6742;48.036;15.780;2023-04-03T05:36:59;4.80;99.90
13346;DHT22;6742;48.036;15.780;2023-04-03T05:39:26;4.80;99.90
13346;DHT22;6742;48.036;15.780;2023-04-03T05:41:53;4.90;99.90
13346;DHT22;6742;48.036;15.780;2023-04-03T05:44:20;4.80;99.90
13346;DHT22;6742;48.036;15.780;2023-04-03T05:46:47;4.80;99.90
13346;DHT22;6742;48.036;15.780;2023-04-03T05:49:14;4.80;99.90
13346;DHT22;6742;48.036;15.780;2023-04-03T05:51:43;4.80;99.90
13346;DHT22;6742;48.036;15.780;2023-04-03T05:54:13;4.80;99.90
13346;DHT22;6742;48.036;15.780;2023-04-03T05:56:42;4.80;99.90
13346;DHT22;6742;48.036;15.780;2023-04-03T05:59:10;4.80;99.90
13346;DHT22;6742;48.036;15.780;2023-04-03T06:01:37;4.80;99.90
13346;DHT22;6742;48.036;15.780;2023-04-03T06:04:04;4.80;99.90
13346;DHT22;6742;48.036;15.780;2023-04-03T06:06:48;4.80;99.90
13346;DHT22;6742;48.036;15.780;2023-04-03T06:09:17;4.70;99.90
13346;DHT22;6742;48.036;15.780;2023-04-03T06:11:45;4.70;99.90
13346;DHT22;6742;48.036;15.780;2023-04-03T06:14:12;4.80;99.90
13346;DHT22;6742;48.036;15.780;2023-04-03T06:16:39;4.80;99.90
13346;DHT22;6742;48.036;15.780;2023-04-03T06:19:06;4.70;99.90
13346;DHT22;6742;48.036;15.780;2023-04-03T06:21:34;4.60;99.90
13346;DHT22;6742;48.036;15.780;2023-04-03T06:24:02;4.60;99.90
13346;DHT22;6742;48.036;15.780;2023-04-03T06:26:29;4.60;99.90
13346;DHT22;6742;48.036;15.780;2023-04-03T06:28:56;4.60;99.90
13346;DHT22;6742;48.036;15.780;2023-04-03T06:31:23;4.70;99.90
13346;DHT22;6742;48.036;15.780;2023-04-03T06:33:50;4.60;99.90
13346;DHT22;6742;48.036;15.780;2023-04-03T06:36:18;4.60;99.90
13346;DHT22;6742;48.036;15.780;2023-04-03T06:38:47;4.60;99.90
13346;DHT22;6742;48.036;15.780;2023-04-03T06:41:16;4.60;99.90
13346;DHT22;6742;48.036;15.780;2023-04-03T06:43:44;4.70;99.90
13346;DHT22;6742;48.036;15.780;2023-04-03T06:46:15;4.60;99.90
13346;DHT22;6742;48.036;15.780;2023-04-03T06:48:43;4.70;99.90
13346;DHT22;6742;48.036;15.780;2023-04-03T06:51:21;4.70;99.90
13346;DHT22;6742;48.036;15.780;2023-04-03T06:53:49;4.70;99.90
13346;DHT22;6742;48.036;15.780;2023-04-03T06:56:18;4.70;99.90
13346;DHT22;6742;48.036;15.780;2023-04-03T06:58:46;4.80;99.90
13346;DHT22;6742;48.036;15.780;2023-04-03T07:01:15;4.70;99.90
13346;DHT22;6742;48.036;15.780;2023-04-03T07:03:43;4.70;99.90
13346;DHT22;6742;48.036;15.780;2023-04-03T07:06:12;4.60;99.90
13346;DHT22;6742;48.036;15.780;2023-04-03T07:08:39;4.60;99.90
13346;DHT22;6742;48.036;15.780;2023-04-03T07:11:08;4.60;99.90
13346;DHT22;6742;48.036;15.780;2023-04-03T07:13:39;4.70;99.90
13346;DHT22;6742;48.036;15.780;2023-04-03T07:16:07;4.70;99.90
13346;DHT22;6742;48.036;15.780;2023-04-03T07:18:34;4.80;99.90
13346;DHT22;6742;48.036;15.780;2023-04-03T07:21:02;4.70;99.90
13346;DHT22;6742;48.036;15.780;2023-04-03T07:23:30;4.60;99.90
13346;DHT22;6742;48.036;15.780;2023-04-03T07:25:56;4.70;99.90
13346;DHT22;6742;48.036;15.780;2023-04-03T07:28:24;4.70;99.90
13346;DHT22;6742;48.036;15.780;2023-04-03T07:30:58;4.60;99.90
13346;DHT22;6742;48.036;15.780;2023-04-03T07:33:25;4.60;99.90
13346;DHT22;6742;48.036;15.780;2023-04-03T07:35:53;4.70;99.90
13346;DHT22;6742;48.036;15.780;2023-04-03T07:38:20;4.60;99.90
13346;DHT22;6742;48.036;15.780;2023-04-03T07:40:48;4.60;99.90
13346;DHT22;6742;48.036;15.780;2023-04-03T07:43:17;4.60;99.90
13346;DHT22;6742;48.036;15.780;2023-04-03T07:45:44;4.50;99.90
13346;DHT22;6742;48.036;15.780;2023-04-03T07:48:12;4.50;99.90
13346;DHT22;6742;48.036;15.780;2023-04-03T07:50:40;4.40;99.90
13346;DHT22;6742;48.036;15.780;2023-04-03T07:53:07;4.40;99.90
13346;DHT22;6742;48.036;15.780;2023-04-03T07:55:34;4.50;99.90
13346;DHT22;6742;48.036;15.780;2023-04-03T07:58:08;4.50;99.90
13346;DHT22;6742;48.036;15.780;2023-04-03T08:00:36;4.50;99.90
13346;DHT22;6742;48.036;15.780;2023-04-03T08:03:03;4.60;99.90
13346;DHT22;6742;48.036;15.780;2023-04-03T08:05:34;4.60;99.90
13346;DHT22;6742;48.036;15.780;2023-04-03T08:08:02;4.70;99.90
13346;DHT22;6742;48.036;15.780;2023-04-03T08:10:30;4.70;99.90
13346;DHT22;6742;48.036;15.780;2023-04-03T08:12:57;4.70;99.90
13346;DHT22;6742;48.036;15.780;2023-04-03T08:15:23;4.70;99.90
13346;DHT22;6742;48.036;15.780;2023-04-03T08:17:51;4.70;99.90
13346;DHT22;6742;48.036;15.780;2023-04-03T08:20:18;4.80;99.90
13346;DHT22;6742;48.036;15.780;2023-04-03T08:22:46;4.90;99.90
13346;DHT22;6742;48.036;15.780;2023-04-03T08:25:13;4.90;99.90
13346;DHT22;6742;48.036;15.780;2023-04-03T08:27:41;4.80;99.90
13346;DHT22;6742;48.036;15.780;2023-04-03T08:30:08;4.90;99.90
13346;DHT22;6742;48.036;15.780;2023-04-03T08:32:36;5.00;99.90
13346;DHT22;6742;48.036;15.780;2023-04-03T08:35:03;5.20;99.90
13346;DHT22;6742;48.036;15.780;2023-04-03T08:37:30;5.30;99.90
13346;DHT22;6742;48.036;15.780;2023-04-03T08:39:58;5.50;99.90
13346;DHT22;6742;48.036;15.780;2023-04-03T08:42:36;5.70;99.90
13346;DHT22;6742;48.036;15.780;2023-04-03T08:45:09;5.80;99.90
13346;DHT22;6742;48.036;15.780;2023-04-03T08:47:39;5.70;99.90
13346;DHT22;6742;48.036;15.780;2023-04-03T08:50:11;5.80;99.90
13346;DHT22;6742;48.036;15.780;2023-04-03T08:52:44;5.80;99.90
13346;DHT22;6742;48.036;15.780;2023-04-03T08:55:22;5.70;99.90
13346;DHT22;6742;48.036;15.780;2023-04-03T08:57:53;5.80;99.90
13346;DHT22;6742;48.036;15.780;2023-04-03T09:00:25;5.90;99.90
13346;DHT22;6742;48.036;15.780;2023-04-03T09:02:54;5.90;99.90
13346;DHT22;6742;48.036;15.780;2023-04-03T09:05:32;5.80;99.90
13346;DHT22;6742;48.036;15.780;2023-04-03T09:08:06;5.80;99.90
13346;DHT22;6742;48.036;15.780;2023-04-03T09:10:39;5.80;99.90
13346;DHT22;6742;48.036;15.780;2023-04-03T09:13:13;5.60;99.90
13346;DHT22;6742;48.036;15.780;2023-04-03T09:15:47;5.60;99.90
13346;DHT22;6742;48.036;15.780;2023-04-03T09:18:19;5.50;99.90
13346;DHT22;6742;48.036;15.780;2023-04-03T09:20:54;5.50;99.90
13346;DHT22;6742;48.036;15.780;2023-04-03T09:23:28;5.50;99.90
13346;DHT22;6742;48.036;15.780;2023-04-03T09:26:02;5.70;99.90
13346;DHT22;6742;48.036;15.780;2023-04-03T09:28:32;5.90;99.90
13346;DHT22;6742;48.036;15.780;2023-04-03T09:31:00;6.50;99.90
13346;DHT22;6742;48.036;15.780;2023-04-03T09:33:30;7.10;99.90
13346;DHT22;6742;48.036;15.780;2023-04-03T09:35:57;7.50;99.90
13346;DHT22;6742;48.036;15.780;2023-04-03T09:38:24;7.60;99.90
13346;DHT22;6742;48.036;15.780;2023-04-03T09:41:05;7.60;99.90
13346;DHT22;6742;48.036;15.780;2023-04-03T09:43:34;7.50;99.90
13346;DHT22;6742;48.036;15.780;2023-04-03T09:46:18;7.40;99.90
13346;DHT22;6742;48.036;15.780;2023-04-03T09:48:51;7.60;99.90
13346;DHT22;6742;48.036;15.780;2023-04-03T09:51:18;7.60;99.90
13346;DHT22;6742;48.036;15.780;2023-04-03T09:53:45;7.90;99.90
13346;DHT22;6742;48.036;15.780;2023-04-03T09:56:24;8.00;99.90
13346;DHT22;6742;48.036;15.780;2023-04-03T09:59:07;7.80;99.90
13346;DHT22;6742;48.036;15.780;2023-04-03T10:01:39;7.50;99.90
13346;DHT22;6742;48.036;15.780;2023-04-03T10:04:10;7.20;99.90
13346;DHT22;6742;48.036;15.780;2023-04-03T10:06:39;6.90;99.90
13346;DHT22;6742;48.036;15.780;2023-04-03T10:09:17;6.70;99.90
13346;DHT22;6742;48.036;15.780;2023-04-03T10:12:03;6.60;99.90
13346;DHT22;6742;48.036;15.780;2023-04-03T10:14:32;6.50;99.90
13346;DHT22;6742;48.036;15.780;2023-04-03T10:17:12;6.50;99.90
13346;DHT22;6742;48.036;15.780;2023-04-03T10:19:44;6.60;99.90
13346;DHT22;6742;48.036;15.780;2023-04-03T10:22:18;6.70;99.90
13346;DHT22;6742;48.036;15.780;2023-04-03T10:24:55;6.60;99.90
13346;DHT22;6742;48.036;15.780;2023-04-03T10:27:36;6.30;99.90
13346;DHT22;6742;48.036;15.780;2023-04-03T10:30:19;6.20;99.90
13346;DHT22;6742;48.036;15.780;2023-04-03T10:32:57;5.90;99.90
13346;DHT22;6742;48.036;15.780;2023-04-03T10:35:37;5.90;99.90
13346;DHT22;6742;48.036;15.780;2023-04-03T10:38:12;5.80;99.90
13346;DHT22;6742;48.036;15.780;2023-04-03T10:40:47;5.70;99.90
13346;DHT22;6742;48.036;15.780;2023-04-03T10:43:21;5.70;99.90
13346;DHT22;6742;48.036;15.780;2023-04-03T10:45:57;5.70;99.90
13346;DHT22;6742;48.036;15.780;2023-04-03T10:48:44;5.70;99.90
13346;DHT22;6742;48.036;15.780;2023-04-03T10:51:24;5.60;99.90
13346;DHT22;6742;48.036;15.780;2023-04-03T10:53:56;5.60;99.90
13346;DHT22;6742;48.036;15.780;2023-04-03T10:56:30;5.60;99.90
13346;DHT22;6742;48.036;15.780;2023-04-03T10:59:02;5.60;99.90
13346;DHT22;6742;48.036;15.780;2023-04-03T11:01:34;5.60;99.90
13346;DHT22;6742;48.036;15.780;2023-04-03T11:04:04;5.50;99.90
13346;DHT22;6742;48.036;15.780;2023-04-03T11:06:36;5.60;99.90
13346;DHT22;6742;48.036;15.780;2023-04-03T11:09:13;5.50;99.90
13346;DHT22;6742;48.036;15.780;2023-04-03T11:11:43;5.50;99.90
13346;DHT22;6742;48.036;15.780;2023-04-03T11:14:14;5.50;99.90
13346;DHT22;6742;48.036;15.780;2023-04-03T11:16:47;5.40;99.90
13346;DHT22;6742;48.036;15.780;2023-04-03T11:19:18;5.30;99.90
13346;DHT22;6742;48.036;15.780;2023-04-03T11:21:52;5.30;99.90
13346;DHT22;6742;48.036;15.780;2023-04-03T11:24:24;5.30;99.90
13346;DHT22;6742;48.036;15.780;2023-04-03T11:26:54;5.30;99.90
13346;DHT22;6742;48.036;15.780;2023-04-03T11:29:25;5.30;99.90
13346;DHT22;6742;48.036;15.780;2023-04-03T11:32:09;5.30;99.90
13346;DHT22;6742;48.036;15.780;2023-04-03T11:34:40;5.40;99.90
13346;DHT22;6742;48.036;15.780;2023-04-03T11:37:14;5.30;99.90
13346;DHT22;6742;48.036;15.780;2023-04-03T11:39:50;5.40;99.90
13346;DHT22;6742;48.036;15.780;2023-04-03T11:42:27;5.50;99.90
13346;DHT22;6742;48.036;15.780;2023-04-03T11:45:24;5.70;99.90
13346;DHT22;6742;48.036;15.780;2023-04-03T11:47:53;5.80;99.90
13346;DHT22;6742;48.036;15.780;2023-04-03T11:50:40;5.90;99.90
13346;DHT22;6742;48.036;15.780;2023-04-03T11:53:32;5.90;99.90
13346;DHT22;6742;48.036;15.780;2023-04-03T11:56:02;5.80;99.90
13346;DHT22;6742;48.036;15.780;2023-04-03T11:58:30;5.80;99.90
13346;DHT22;6742;48.036;15.780;2023-04-03T12:01:02;5.90;99.90
13346;DHT22;6742;48.036;15.780;2023-04-03T12:04:09;5.90;99.90
13346;DHT22;6742;48.036;15.780;2023-04-03T12:07:01;6.00;99.90
13346;DHT22;6742;48.036;15.780;2023-04-03T12:09:35;5.90;99.90
13346;DHT22;6742;48.036;15.780;2023-04-03T12:12:35;5.80;99.90
13346;DHT22;6742;48.036;15.780;2023-04-03T12:21:18;6.40;99.90
13346;DHT22;6742;48.036;15.780;2023-04-03T12:24:00;6.40;99.90
13346;DHT22;6742;48.036;15.780;2023-04-03T12:26:30;6.40;99.90
13346;DHT22;6742;48.036;15.780;2023-04-03T12:28:57;6.30;99.90
13346;DHT22;6742;48.036;15.780;2023-04-03T12:31:37;6.40;99.90
13346;DHT22;6742;48.036;15.780;2023-04-03T12:34:18;6.50;99.90
13346;DHT22;6742;48.036;15.780;2023-04-03T12:37:00;6.60;99.90
13346;DHT22;6742;48.036;15.780;2023-04-03T12:39:53;6.70;99.90
13346;DHT22;6742;48.036;15.780;2023-04-03T12:42:42;6.90;99.90
13346;DHT22;6742;48.036;15.780;2023-04-03T12:45:17;6.90;99.90
13346;DHT22;6742;48.036;15.780;2023-04-03T12:47:48;6.60;99.90
13346;DHT22;6742;48.036;15.780;2023-04-03T12:50:20;6.40;99.90
13346;DHT22;6742;48.036;15.780;2023-04-03T12:52:55;6.30;99.90
13346;DHT22;6742;48.036;15.780;2023-04-03T12:55:24;6.30;99.90
13346;DHT22;6742;48.036;15.780;2023-04-03T12:57:52;6.40;99.90
13346;DHT22;6742;48.036;15.780;2023-04-03T13:00:30;6.40;99.90
13346;DHT22;6742;48.036;15.780;2023-04-03T13:03:00;6.50;99.90
13346;DHT22;6742;48.036;15.780;2023-04-03T13:05:28;6.50;99.90
13346;DHT22;6742;48.036;15.780;2023-04-03T13:07:59;6.40;99.90
13346;DHT22;6742;48.036;15.780;2023-04-03T13:10:27;6.30;98.70
13346;DHT22;6742;48.036;15.780;2023-04-03T13:12:56;6.10;99.60
13346;DHT22;6742;48.036;15.780;2023-04-03T13:15:25;6.10;99.90
13346;DHT22;6742;48.036;15.780;2023-04-03T13:17:53;6.00;99.10
13346;DHT22;6742;48.036;15.780;2023-04-03T13:20:24;6.00;99.40
13346;DHT22;6742;48.036;15.780;2023-04-03T13:22:58;6.00;99.10
13346;DHT22;6742;48.036;15.780;2023-04-03T13:25:28;5.90;98.30
13346;DHT22;6742;48.036;15.780;2023-04-03T13:27:56;5.80;99.50
13346;DHT22;6742;48.036;15.780;2023-04-03T13:30:30;5.70;97.30
13346;DHT22;6742;48.036;15.780;2023-04-03T13:32:59;5.70;98.90
13346;DHT22;6742;48.036;15.780;2023-04-03T13:35:31;5.70;98.40
13346;DHT22;6742;48.036;15.780;2023-04-03T13:38:03;5.80;99.50
13346;DHT22;6742;48.036;15.780;2023-04-03T13:40:31;5.70;99.00
13346;DHT22;6742;48.036;15.780;2023-04-03T13:43:03;5.80;98.70
13346;DHT22;6742;48.036;15.780;2023-04-03T13:45:31;5.80;98.00
13346;DHT22;6742;48.036;15.780;2023-04-03T13:48:14;5.60;97.80
13346;DHT22;6742;48.036;15.780;2023-04-03T13:50:55;5.60;97.80
13346;DHT22;6742;48.036;15.780;2023-04-03T13:53:25;5.50;99.60
13346;DHT22;6742;48.036;15.780;2023-04-03T13:55:59;5.60;99.30
13346;DHT22;6742;48.036;15.780;2023-04-03T13:58:28;5.70;99.00
13346;DHT22;6742;48.036;15.780;2023-04-03T14:01:00;5.80;99.80
13346;DHT22;6742;48.036;15.780;2023-04-03T14:03:30;5.80;99.10
13346;DHT22;6742;48.036;15.780;2023-04-03T14:05:58;6.00;99.70
13346;DHT22;6742;48.036;15.780;2023-04-03T14:08:27;6.10;99.50
13346;DHT22;6742;48.036;15.780;2023-04-03T14:10:54;6.20;98.50
13346;DHT22;6742;48.036;15.780;2023-04-03T14:13:21;6.30;98.80
13346;DHT22;6742;48.036;15.780;2023-04-03T14:15:48;6.30;98.70
13346;DHT22;6742;48.036;15.780;2023-04-03T14:18:18;6.30;98.50
13346;DHT22;6742;48.036;15.780;2023-04-03T14:20:45;6.20;98.70
13346;DHT22;6742;48.036;15.780;2023-04-03T14:23:12;6.10;99.20
13346;DHT22;6742;48.036;15.780;2023-04-03T14:25:43;6.10;98.70
13346;DHT22;6742;48.036;15.780;2023-04-03T14:28:16;6.10;99.90
13346;DHT22;6742;48.036;15.780;2023-04-03T14:30:44;6.10;98.70
13346;DHT22;6742;48.036;15.780;2023-04-03T14:33:14;6.00;98.40
13346;DHT22;6742;48.036;15.780;2023-04-03T14:35:42;6.00;97.50
13346;DHT22;6742;48.036;15.780;2023-04-03T14:38:22;5.90;97.70
13346;DHT22;6742;48.036;15.780;2023-04-03T14:40:52;5.80;97.70
13346;DHT22;6742;48.036;15.780;2023-04-03T14:43:19;5.60;97.30
13346;DHT22;6742;48.036;15.780;2023-04-03T14:45:47;5.70;97.60
13346;DHT22;6742;48.036;15.780;2023-04-03T14:48:18;5.70;98.40
13346;DHT22;6742;48.036;15.780;2023-04-03T14:50:46;5.70;96.70
13346;DHT22;6742;48.036;15.780;2023-04-03T14:53:13;5.60;98.60
13346;DHT22;6742;48.036;15.780;2023-04-03T14:55:43;5.50;96.70
13346;DHT22;6742;48.036;15.780;2023-04-03T14:58:17;5.30;97.00
13346;DHT22;6742;48.036;15.780;2023-04-03T15:00:45;5.30;98.60
13346;DHT22;6742;48.036;15.780;2023-04-03T15:03:14;5.30;98.40
13346;DHT22;6742;48.036;15.780;2023-04-03T15:05:42;5.30;98.30
13346;DHT22;6742;48.036;15.780;2023-04-03T15:08:18;5.30;99.00
13346;DHT22;6742;48.036;15.780;2023-04-03T15:10:46;5.30;97.70
13346;DHT22;6742;48.036;15.780;2023-04-03T15:13:15;5.40;98.10
13346;DHT22;6742;48.036;15.780;2023-04-03T15:15:42;5.40;98.80
13346;DHT22;6742;48.036;15.780;2023-04-03T15:18:14;5.40;97.20
13346;DHT22;6742;48.036;15.780;2023-04-03T15:20:42;5.40;99.10
13346;DHT22;6742;48.036;15.780;2023-04-03T15:23:10;5.40;99.30
13346;DHT22;6742;48.036;15.780;2023-04-03T15:25:38;5.40;97.40
13346;DHT22;6742;48.036;15.780;2023-04-03T15:28:06;5.40;97.50
13346;DHT22;6742;48.036;15.780;2023-04-03T15:30:36;5.30;98.00
13346;DHT22;6742;48.036;15.780;2023-04-03T15:33:05;5.30;96.90
13346;DHT22;6742;48.036;15.780;2023-04-03T15:35:32;5.10;96.80
13346;DHT22;6742;48.036;15.780;2023-04-03T15:37:59;5.10;97.50
13346;DHT22;6742;48.036;15.780;2023-04-03T15:40:26;5.10;97.80
13346;DHT22;6742;48.036;15.780;2023-04-03T15:42:53;5.00;97.60
13346;DHT22;6742;48.036;15.780;2023-04-03T15:45:20;5.00;97.50
13346;DHT22;6742;48.036;15.780;2023-04-03T15:47:49;5.00;98.40
13346;DHT22;6742;48.036;15.780;2023-04-03T15:50:16;4.90;96.70
13346;DHT22;6742;48.036;15.780;2023-04-03T15:52:43;4.90;97.50
13346;DHT22;6742;48.036;15.780;2023-04-03T15:55:10;4.90;98.40
13346;DHT22;6742;48.036;15.780;2023-04-03T15:57:37;4.90;96.50
13346;DHT22;6742;48.036;15.780;2023-04-03T16:00:05;4.80;97.40
13346;DHT22;6742;48.036;15.780;2023-04-03T16:02:33;4.80;96.90
13346;DHT22;6742;48.036;15.780;2023-04-03T16:05:01;4.80;97.60
13346;DHT22;6742;48.036;15.780;2023-04-03T16:07:28;4.70;96.40
13346;DHT22;6742;48.036;15.780;2023-04-03T16:09:56;4.60;97.30
13346;DHT22;6742;48.036;15.780;2023-04-03T16:12:23;4.70;98.80